sensor_id;sensor_type;location;lat;lon;timestamp;pressure;altitude;pressure_sealevel;temperature;humidity
54248;BME280;40161;39.768;2.722;2022-07-24T00:00:06;101425.13;;;27.45;53.77
54248;BME280;40161;39.768;2.722;2022-07-24T00:02:33;101424.81;;;27.53;52.29
54248;BME280;40161;39.768;2.722;2022-07-24T00:04:59;101423.25;;;27.42;52.45
54248;BME280;40161;39.768;2.722;2022-07-24T00:07:27;101427.66;;;27.43;52.58
54248;BME280;40161;39.768;2.722;2022-07-24T00:09:53;101425.47;;;27.48;52.73
54248;BME280;40161;39.768;2.722;2022-07-24T00:12:19;101425.13;;;27.45;51.87
54248;BME280;40161;39.768;2.722;2022-07-24T00:14:45;101426.41;;;27.54;52.29
54248;BME280;40161;39.768;2.722;2022-07-24T00:17:10;101428.91;;;27.52;52.38
54248;BME280;40161;39.768;2.722;2022-07-24T00:19:36;101423.13;;;27.55;51.33
54248;BME280;40161;39.768;2.722;2022-07-24T00:22:01;101422.34;;;27.55;49.07
54248;BME280;40161;39.768;2.722;2022-07-24T00:24:28;101424.84;;;27.43;51.27
54248;BME280;40161;39.768;2.722;2022-07-24T00:26:54;101428.25;;;27.38;50.19
54248;BME280;40161;39.768;2.722;2022-07-24T00:29:19;101393.25;;;27.08;50.55
54248;BME280;40161;39.768;2.722;2022-07-24T00:31:45;101372.72;;;26.98;51.07
54248;BME280;40161;39.768;2.722;2022-07-24T00:34:10;101424.47;;;27.32;49.46
54248;BME280;40161;39.768;2.722;2022-07-24T00:36:36;101377.06;;;26.90;48.67
54248;BME280;40161;39.768;2.722;2022-07-24T00:39:02;101405.31;;;27.09;52.15
54248;BME280;40161;39.768;2.722;2022-07-24T00:41:27;101426.81;;;27.15;52.21
54248;BME280;40161;39.768;2.722;2022-07-24T00:44:15;101394.44;;;26.89;51.85
54248;BME280;40161;39.768;2.722;2022-07-24T00:46:42;101413.16;;;27.14;51.35
54248;BME280;40161;39.768;2.722;2022-07-24T00:49:11;101420.22;;;27.18;49.56
54248;BME280;40161;39.768;2.722;2022-07-24T00:51:40;101411.00;;;27.27;48.58
54248;BME280;40161;39.768;2.722;2022-07-24T00:54:07;101417.41;;;27.18;49.42
54248;BME280;40161;39.768;2.722;2022-07-24T00:56:33;101392.66;;;26.73;49.78
54248;BME280;40161;39.768;2.722;2022-07-24T00:59:03;101418.66;;;26.86;50.11
54248;BME280;40161;39.768;2.722;2022-07-24T01:01:28;101409.91;;;26.53;49.63
54248;BME280;40161;39.768;2.722;2022-07-24T01:03:54;101403.91;;;26.20;50.66
54248;BME280;40161;39.768;2.722;2022-07-24T01:06:20;101371.53;;;25.93;50.75
54248;BME280;40161;39.768;2.722;2022-07-24T01:08:46;101411.31;;;26.36;52.19
54248;BME280;40161;39.768;2.722;2022-07-24T01:11:12;101409.50;;;26.42;51.53
54248;BME280;40161;39.768;2.722;2022-07-24T01:13:38;101348.94;;;26.28;51.90
54248;BME280;40161;39.768;2.722;2022-07-24T01:16:05;101399.53;;;26.72;51.48
54248;BME280;40161;39.768;2.722;2022-07-24T01:18:31;101399.88;;;26.83;51.11
54248;BME280;40161;39.768;2.722;2022-07-24T01:20:56;101405.38;;;26.87;50.51
54248;BME280;40161;39.768;2.722;2022-07-24T01:23:23;101404.34;;;27.03;48.89
54248;BME280;40161;39.768;2.722;2022-07-24T01:25:49;101403.75;;;26.23;51.11
54248;BME280;40161;39.768;2.722;2022-07-24T01:28:15;101407.25;;;26.06;50.54
54248;BME280;40161;39.768;2.722;2022-07-24T01:30:41;101382.00;;;25.93;51.80
54248;BME280;40161;39.768;2.722;2022-07-24T01:33:07;101403.63;;;26.49;50.95
54248;BME280;40161;39.768;2.722;2022-07-24T01:35:33;101378.16;;;26.52;51.29
54248;BME280;40161;39.768;2.722;2022-07-24T01:37:58;101399.88;;;26.74;51.25
54248;BME280;40161;39.768;2.722;2022-07-24T01:40:24;101398.59;;;26.75;49.42
54248;BME280;40161;39.768;2.722;2022-07-24T01:42:50;101395.97;;;26.81;50.73
54248;BME280;40161;39.768;2.722;2022-07-24T01:45:16;101401.78;;;26.86;50.05
54248;BME280;40161;39.768;2.722;2022-07-24T01:47:42;101405.56;;;26.92;49.14
54248;BME280;40161;39.768;2.722;2022-07-24T01:50:10;101352.91;;;26.40;48.81
54248;BME280;40161;39.768;2.722;2022-07-24T01:52:36;101397.63;;;26.69;50.23
54248;BME280;40161;39.768;2.722;2022-07-24T01:55:02;101397.50;;;26.72;50.57
54248;BME280;40161;39.768;2.722;2022-07-24T01:57:28;101395.31;;;26.77;48.91
54248;BME280;40161;39.768;2.722;2022-07-24T01:59:53;101387.53;;;26.81;50.00
54248;BME280;40161;39.768;2.722;2022-07-24T02:02:19;101394.59;;;26.85;50.10
54248;BME280;40161;39.768;2.722;2022-07-24T02:04:44;101396.28;;;26.83;48.55
54248;BME280;40161;39.768;2.722;2022-07-24T02:07:10;101361.59;;;26.55;49.03
54248;BME280;40161;39.768;2.722;2022-07-24T02:09:35;101389.38;;;26.74;49.50
54248;BME280;40161;39.768;2.722;2022-07-24T02:12:01;101379.22;;;26.77;49.68
54248;BME280;40161;39.768;2.722;2022-07-24T02:14:26;101373.31;;;26.84;49.95
54248;BME280;40161;39.768;2.722;2022-07-24T02:16:52;101377.84;;;26.82;49.46
54248;BME280;40161;39.768;2.722;2022-07-24T02:19:17;101371.13;;;26.88;49.52
54248;BME280;40161;39.768;2.722;2022-07-24T02:21:43;101370.66;;;26.81;49.54
54248;BME280;40161;39.768;2.722;2022-07-24T02:24:09;101352.59;;;26.69;49.33
54248;BME280;40161;39.768;2.722;2022-07-24T02:26:34;101367.06;;;26.89;47.92
54248;BME280;40161;39.768;2.722;2022-07-24T02:28:59;101366.25;;;26.48;49.09
54248;BME280;40161;39.768;2.722;2022-07-24T02:31:25;101381.19;;;26.14;49.58
54248;BME280;40161;39.768;2.722;2022-07-24T02:33:51;101368.00;;;26.02;49.61
54248;BME280;40161;39.768;2.722;2022-07-24T02:36:17;101369.59;;;25.68;49.85
54248;BME280;40161;39.768;2.722;2022-07-24T02:38:43;101368.38;;;25.56;49.70
54248;BME280;40161;39.768;2.722;2022-07-24T02:41:08;101376.31;;;25.71;49.48
54248;BME280;40161;39.768;2.722;2022-07-24T02:43:34;101369.13;;;25.70;50.57
54248;BME280;40161;39.768;2.722;2022-07-24T02:46:00;101377.78;;;25.97;50.98
54248;BME280;40161;39.768;2.722;2022-07-24T02:48:25;101374.72;;;26.04;49.80
54248;BME280;40161;39.768;2.722;2022-07-24T02:50:51;101336.78;;;25.87;49.10
54248;BME280;40161;39.768;2.722;2022-07-24T02:53:17;101368.97;;;26.08;49.42
54248;BME280;40161;39.768;2.722;2022-07-24T02:55:42;101342.50;;;25.96;49.85
54248;BME280;40161;39.768;2.722;2022-07-24T02:58:08;101350.25;;;26.14;50.63
54248;BME280;40161;39.768;2.722;2022-07-24T03:00:33;101371.81;;;26.39;50.46
54248;BME280;40161;39.768;2.722;2022-07-24T03:02:59;101375.19;;;26.47;50.24
54248;BME280;40161;39.768;2.722;2022-07-24T03:05:24;101366.59;;;26.50;49.41
54248;BME280;40161;39.768;2.722;2022-07-24T03:07:50;101371.16;;;26.57;49.52
54248;BME280;40161;39.768;2.722;2022-07-24T03:10:16;101368.94;;;26.52;49.51
54248;BME280;40161;39.768;2.722;2022-07-24T03:12:42;101376.66;;;26.61;49.37
54248;BME280;40161;39.768;2.722;2022-07-24T03:15:09;101379.13;;;26.59;48.94
54248;BME280;40161;39.768;2.722;2022-07-24T03:17:35;101374.63;;;26.61;48.77
54248;BME280;40161;39.768;2.722;2022-07-24T03:23:22;101374.63;;;26.61;48.45
54248;BME280;40161;39.768;2.722;2022-07-24T03:25:47;101363.78;;;26.50;49.26
54248;BME280;40161;39.768;2.722;2022-07-24T03:28:13;101340.69;;;26.34;47.74
54248;BME280;40161;39.768;2.722;2022-07-24T03:30:38;101374.75;;;26.58;47.90
54248;BME280;40161;39.768;2.722;2022-07-24T03:33:04;101353.97;;;26.33;47.98
54248;BME280;40161;39.768;2.722;2022-07-24T03:35:29;101366.31;;;26.58;47.76
54248;BME280;40161;39.768;2.722;2022-07-24T03:37:55;101322.34;;;25.98;48.67
54248;BME280;40161;39.768;2.722;2022-07-24T03:40:21;101374.44;;;26.12;49.04
54248;BME280;40161;39.768;2.722;2022-07-24T03:42:46;101371.91;;;26.04;48.91
54248;BME280;40161;39.768;2.722;2022-07-24T03:45:12;101315.72;;;25.70;48.98
54248;BME280;40161;39.768;2.722;2022-07-24T03:47:37;101344.00;;;25.88;47.53
54248;BME280;40161;39.768;2.722;2022-07-24T03:50:03;101370.34;;;26.03;49.47
54248;BME280;40161;39.768;2.722;2022-07-24T03:52:29;101371.53;;;26.15;49.83
54248;BME280;40161;39.768;2.722;2022-07-24T03:54:54;101381.13;;;26.27;49.60
54248;BME280;40161;39.768;2.722;2022-07-24T03:57:20;101371.78;;;26.30;49.72
54248;BME280;40161;39.768;2.722;2022-07-24T03:59:46;101366.16;;;26.30;49.58
54248;BME280;40161;39.768;2.722;2022-07-24T04:02:12;101372.06;;;26.32;49.45
54248;BME280;40161;39.768;2.722;2022-07-24T04:04:38;101360.19;;;26.28;49.02
54248;BME280;40161;39.768;2.722;2022-07-24T04:07:03;101340.69;;;26.12;48.71
54248;BME280;40161;39.768;2.722;2022-07-24T04:09:29;101362.69;;;26.26;48.82
54248;BME280;40161;39.768;2.722;2022-07-24T04:11:54;101333.22;;;26.09;48.31
54248;BME280;40161;39.768;2.722;2022-07-24T04:14:20;101350.25;;;26.14;48.78
54248;BME280;40161;39.768;2.722;2022-07-24T04:16:45;101369.50;;;26.16;47.80
54248;BME280;40161;39.768;2.722;2022-07-24T04:19:12;101378.72;;;26.16;49.24
54248;BME280;40161;39.768;2.722;2022-07-24T04:21:38;101375.63;;;26.23;46.86
54248;BME280;40161;39.768;2.722;2022-07-24T04:24:03;101377.34;;;26.21;49.26
54248;BME280;40161;39.768;2.722;2022-07-24T04:26:29;101372.88;;;26.11;48.87
54248;BME280;40161;39.768;2.722;2022-07-24T04:28:54;101377.25;;;26.12;47.56
54248;BME280;40161;39.768;2.722;2022-07-24T04:31:20;101376.97;;;26.10;48.92
54248;BME280;40161;39.768;2.722;2022-07-24T04:33:45;101374.59;;;26.08;48.08
54248;BME280;40161;39.768;2.722;2022-07-24T04:36:11;101377.72;;;26.10;49.28
54248;BME280;40161;39.768;2.722;2022-07-24T04:38:36;101372.09;;;26.10;49.10
54248;BME280;40161;39.768;2.722;2022-07-24T04:41:02;101342.63;;;25.93;49.30
54248;BME280;40161;39.768;2.722;2022-07-24T04:43:28;101369.81;;;26.18;49.14
54248;BME280;40161;39.768;2.722;2022-07-24T04:45:54;101382.88;;;26.12;49.16
54248;BME280;40161;39.768;2.722;2022-07-24T04:48:20;101377.16;;;26.15;48.65
54248;BME280;40161;39.768;2.722;2022-07-24T04:50:45;101378.13;;;25.99;49.17
54248;BME280;40161;39.768;2.722;2022-07-24T04:53:11;101370.13;;;25.98;48.71
54248;BME280;40161;39.768;2.722;2022-07-24T04:55:37;101380.41;;;26.14;47.49
54248;BME280;40161;39.768;2.722;2022-07-24T04:58:02;101328.19;;;24.61;49.60
54248;BME280;40161;39.768;2.722;2022-07-24T05:00:28;101374.75;;;24.84;50.45
54248;BME280;40161;39.768;2.722;2022-07-24T05:02:53;101368.00;;;25.32;49.20
54248;BME280;40161;39.768;2.722;2022-07-24T05:05:19;101341.31;;;24.77;50.72
54248;BME280;40161;39.768;2.722;2022-07-24T05:07:45;101387.53;;;25.36;51.00
54248;BME280;40161;39.768;2.722;2022-07-24T05:10:10;101378.97;;;25.52;50.89
54248;BME280;40161;39.768;2.722;2022-07-24T05:12:36;101371.28;;;25.66;49.91
54248;BME280;40161;39.768;2.722;2022-07-24T05:15:02;101372.38;;;25.81;49.91
54248;BME280;40161;39.768;2.722;2022-07-24T05:17:28;101374.94;;;25.88;49.48
54248;BME280;40161;39.768;2.722;2022-07-24T05:19:54;101377.19;;;25.80;49.53
54248;BME280;40161;39.768;2.722;2022-07-24T05:22:19;101388.59;;;25.99;50.00
54248;BME280;40161;39.768;2.722;2022-07-24T05:24:45;101382.84;;;26.02;50.06
54248;BME280;40161;39.768;2.722;2022-07-24T05:27:10;101378.78;;;26.03;50.17
54248;BME280;40161;39.768;2.722;2022-07-24T05:29:36;101368.78;;;26.02;50.19
54248;BME280;40161;39.768;2.722;2022-07-24T05:32:01;101379.28;;;26.11;49.63
54248;BME280;40161;39.768;2.722;2022-07-24T05:34:27;101372.09;;;26.10;49.20
54248;BME280;40161;39.768;2.722;2022-07-24T05:36:52;101377.41;;;26.08;48.92
54248;BME280;40161;39.768;2.722;2022-07-24T05:39:17;101374.81;;;25.92;49.88
54248;BME280;40161;39.768;2.722;2022-07-24T05:41:43;101331.03;;;25.69;49.24
54248;BME280;40161;39.768;2.722;2022-07-24T05:44:08;101368.41;;;25.91;49.43
54248;BME280;40161;39.768;2.722;2022-07-24T05:46:34;101371.84;;;25.95;48.52
54248;BME280;40161;39.768;2.722;2022-07-24T05:48:59;101368.22;;;25.73;49.85
54248;BME280;40161;39.768;2.722;2022-07-24T05:51:25;101372.06;;;24.93;51.30
54248;BME280;40161;39.768;2.722;2022-07-24T05:53:51;101380.81;;;25.33;51.47
54248;BME280;40161;39.768;2.722;2022-07-24T05:56:17;101376.31;;;25.10;52.36
54248;BME280;40161;39.768;2.722;2022-07-24T05:58:42;101372.16;;;25.28;52.78
54248;BME280;40161;39.768;2.722;2022-07-24T06:01:08;101373.72;;;25.42;51.52
54248;BME280;40161;39.768;2.722;2022-07-24T06:03:33;101374.25;;;25.49;51.80
54248;BME280;40161;39.768;2.722;2022-07-24T06:05:59;101381.19;;;25.57;51.05
54248;BME280;40161;39.768;2.722;2022-07-24T06:08:24;101374.47;;;25.77;51.70
54248;BME280;40161;39.768;2.722;2022-07-24T06:10:50;101385.38;;;25.88;51.55
54248;BME280;40161;39.768;2.722;2022-07-24T06:13:15;101382.13;;;25.89;51.18
54248;BME280;40161;39.768;2.722;2022-07-24T06:15:41;101387.00;;;25.98;51.06
54248;BME280;40161;39.768;2.722;2022-07-24T06:18:06;101395.53;;;26.07;51.70
54248;BME280;40161;39.768;2.722;2022-07-24T06:20:32;101390.38;;;26.06;51.31
54248;BME280;40161;39.768;2.722;2022-07-24T06:22:57;101342.53;;;25.84;50.87
54248;BME280;40161;39.768;2.722;2022-07-24T06:25:23;101387.94;;;26.17;51.18
54248;BME280;40161;39.768;2.722;2022-07-24T06:27:50;101392.97;;;26.22;50.78
54248;BME280;40161;39.768;2.722;2022-07-24T06:30:18;101381.13;;;26.27;50.62
54248;BME280;40161;39.768;2.722;2022-07-24T06:32:44;101392.50;;;26.23;47.73
54248;BME280;40161;39.768;2.722;2022-07-24T06:35:11;101385.34;;;26.22;48.33
54248;BME280;40161;39.768;2.722;2022-07-24T06:37:36;101387.03;;;26.20;48.35
54248;BME280;40161;39.768;2.722;2022-07-24T06:40:03;101386.41;;;26.25;48.64
54248;BME280;40161;39.768;2.722;2022-07-24T06:42:28;101311.94;;;25.64;47.63
54248;BME280;40161;39.768;2.722;2022-07-24T06:44:54;101390.53;;;26.11;48.17
54248;BME280;40161;39.768;2.722;2022-07-24T06:47:19;101381.47;;;26.29;47.73
54248;BME280;40161;39.768;2.722;2022-07-24T06:49:45;101351.31;;;26.08;47.67
54248;BME280;40161;39.768;2.722;2022-07-24T06:52:10;101383.84;;;26.62;46.35
54248;BME280;40161;39.768;2.722;2022-07-24T06:54:36;101384.13;;;26.33;47.33
54248;BME280;40161;39.768;2.722;2022-07-24T06:57:02;101391.25;;;26.46;47.54
54248;BME280;40161;39.768;2.722;2022-07-24T06:59:28;101346.47;;;26.39;46.85
54248;BME280;40161;39.768;2.722;2022-07-24T07:01:53;101376.59;;;26.51;47.83
54248;BME280;40161;39.768;2.722;2022-07-24T07:04:19;101380.31;;;26.80;47.46
54248;BME280;40161;39.768;2.722;2022-07-24T07:06:44;101378.06;;;26.65;48.36
54248;BME280;40161;39.768;2.722;2022-07-24T07:09:11;101379.34;;;26.73;49.51
54248;BME280;40161;39.768;2.722;2022-07-24T07:11:36;101383.91;;;26.80;48.95
54248;BME280;40161;39.768;2.722;2022-07-24T07:14:02;101373.91;;;26.79;48.57
54248;BME280;40161;39.768;2.722;2022-07-24T07:16:28;101341.66;;;26.71;46.39
54248;BME280;40161;39.768;2.722;2022-07-24T07:18:53;101379.63;;;27.07;46.83
54248;BME280;40161;39.768;2.722;2022-07-24T07:21:19;101375.88;;;27.10;47.03
54248;BME280;40161;39.768;2.722;2022-07-24T07:23:44;101380.81;;;27.28;46.14
54248;BME280;40161;39.768;2.722;2022-07-24T07:26:10;101349.19;;;27.42;44.19
54248;BME280;40161;39.768;2.722;2022-07-24T07:31:57;101379.16;;;27.95;42.67
54248;BME280;40161;39.768;2.722;2022-07-24T07:34:22;101389.13;;;28.14;42.57
54248;BME280;40161;39.768;2.722;2022-07-24T07:36:48;101365.06;;;27.85;41.66
54248;BME280;40161;39.768;2.722;2022-07-24T07:39:13;101379.13;;;28.04;41.39
54248;BME280;40161;39.768;2.722;2022-07-24T07:41:39;101373.97;;;28.02;39.92
54248;BME280;40161;39.768;2.722;2022-07-24T07:44:05;101333.22;;;27.66;40.35
54248;BME280;40161;39.768;2.722;2022-07-24T07:46:30;101375.22;;;28.01;40.05
54248;BME280;40161;39.768;2.722;2022-07-24T07:48:56;101330.72;;;27.68;44.45
54248;BME280;40161;39.768;2.722;2022-07-24T07:51:21;101363.50;;;27.84;44.31
54248;BME280;40161;39.768;2.722;2022-07-24T07:53:47;101359.72;;;27.78;44.14
54248;BME280;40161;39.768;2.722;2022-07-24T07:56:14;101367.22;;;28.09;39.65
54248;BME280;40161;39.768;2.722;2022-07-24T07:58:39;101372.56;;;28.68;38.52
54248;BME280;40161;39.768;2.722;2022-07-24T08:01:05;101366.75;;;28.71;38.27
54248;BME280;40161;39.768;2.722;2022-07-24T08:03:31;101333.44;;;28.42;39.13
54248;BME280;40161;39.768;2.722;2022-07-24T08:05:56;101370.31;;;28.38;40.23
54248;BME280;40161;39.768;2.722;2022-07-24T08:08:22;101374.84;;;28.36;40.54
54248;BME280;40161;39.768;2.722;2022-07-24T08:10:47;101375.78;;;28.33;41.52
54248;BME280;40161;39.768;2.722;2022-07-24T08:13:13;101379.44;;;28.15;41.72
54248;BME280;40161;39.768;2.722;2022-07-24T08:15:41;101370.81;;;28.09;40.88
54248;BME280;40161;39.768;2.722;2022-07-24T08:18:07;101342.78;;;27.97;41.15
54248;BME280;40161;39.768;2.722;2022-07-24T08:20:32;101391.31;;;28.47;38.50
54248;BME280;40161;39.768;2.722;2022-07-24T08:22:58;101373.66;;;28.70;39.19
54248;BME280;40161;39.768;2.722;2022-07-24T08:25:25;101344.25;;;28.53;39.04
54248;BME280;40161;39.768;2.722;2022-07-24T08:27:50;101382.25;;;28.76;39.28
54248;BME280;40161;39.768;2.722;2022-07-24T08:30:16;101341.00;;;28.69;39.13
54248;BME280;40161;39.768;2.722;2022-07-24T08:32:42;101353.53;;;29.10;38.02
54248;BME280;40161;39.768;2.722;2022-07-24T08:35:09;101379.28;;;29.61;37.05
54248;BME280;40161;39.768;2.722;2022-07-24T08:37:40;101350.81;;;29.40;37.81
54248;BME280;40161;39.768;2.722;2022-07-24T08:40:07;101379.56;;;29.63;38.61
54248;BME280;40161;39.768;2.722;2022-07-24T08:42:33;101376.19;;;29.73;38.47
54248;BME280;40161;39.768;2.722;2022-07-24T08:44:59;101379.63;;;29.77;38.59
54248;BME280;40161;39.768;2.722;2022-07-24T08:47:25;101381.28;;;29.84;37.32
54248;BME280;40161;39.768;2.722;2022-07-24T08:49:57;101374.53;;;29.82;37.78
54248;BME280;40161;39.768;2.722;2022-07-24T08:52:23;101382.38;;;30.16;37.10
54248;BME280;40161;39.768;2.722;2022-07-24T08:54:49;101384.91;;;30.14;37.40
54248;BME280;40161;39.768;2.722;2022-07-24T08:57:15;101392.03;;;30.10;36.24
54248;BME280;40161;39.768;2.722;2022-07-24T08:59:40;101392.16;;;30.15;36.94
54248;BME280;40161;39.768;2.722;2022-07-24T09:02:07;101394.78;;;30.48;35.31
54248;BME280;40161;39.768;2.722;2022-07-24T09:04:43;101366.09;;;30.41;35.27
54248;BME280;40161;39.768;2.722;2022-07-24T09:07:15;101387.38;;;30.51;36.84
54248;BME280;40161;39.768;2.722;2022-07-24T09:09:42;101396.28;;;30.29;37.88
54248;BME280;40161;39.768;2.722;2022-07-24T09:12:15;101379.78;;;30.42;37.29
54248;BME280;40161;39.768;2.722;2022-07-24T09:14:46;101412.28;;;30.47;37.59
54248;BME280;40161;39.768;2.722;2022-07-24T09:17:12;101414.53;;;30.58;38.79
54248;BME280;40161;39.768;2.722;2022-07-24T09:19:58;101408.06;;;30.57;38.60
54248;BME280;40161;39.768;2.722;2022-07-24T09:25:03;101379.47;;;30.40;37.35
54248;BME280;40161;39.768;2.722;2022-07-24T09:27:29;101415.88;;;30.62;37.24
54248;BME280;40161;39.768;2.722;2022-07-24T09:29:54;101398.78;;;30.71;37.55
54248;BME280;40161;39.768;2.722;2022-07-24T09:32:24;101362.22;;;30.88;36.38
54248;BME280;40161;39.768;2.722;2022-07-24T09:34:51;101396.69;;;31.02;37.17
54248;BME280;40161;39.768;2.722;2022-07-24T09:37:18;101393.13;;;31.07;36.56
54248;BME280;40161;39.768;2.722;2022-07-24T09:39:44;101385.91;;;30.70;37.97
54248;BME280;40161;39.768;2.722;2022-07-24T09:42:10;101379.84;;;30.78;36.30
54248;BME280;40161;39.768;2.722;2022-07-24T09:44:36;101369.88;;;30.82;35.30
54248;BME280;40161;39.768;2.722;2022-07-24T09:47:07;101390.66;;;30.94;36.32
54248;BME280;40161;39.768;2.722;2022-07-24T09:49:34;101386.25;;;30.93;35.69
54248;BME280;40161;39.768;2.722;2022-07-24T09:52:17;101373.47;;;30.83;36.46
54248;BME280;40161;39.768;2.722;2022-07-24T09:54:45;101363.22;;;30.85;35.26
54248;BME280;40161;39.768;2.722;2022-07-24T09:57:20;101397.41;;;31.17;35.11
54248;BME280;40161;39.768;2.722;2022-07-24T09:59:49;101395.44;;;31.23;34.38
54248;BME280;40161;39.768;2.722;2022-07-24T10:02:17;101365.09;;;31.09;34.63
54248;BME280;40161;39.768;2.722;2022-07-24T10:04:44;101386.94;;;31.23;34.66
54248;BME280;40161;39.768;2.722;2022-07-24T10:07:12;101390.88;;;31.31;34.82
54248;BME280;40161;39.768;2.722;2022-07-24T10:09:43;101393.63;;;31.40;33.42
54248;BME280;40161;39.768;2.722;2022-07-24T10:12:14;101404.41;;;31.57;32.83
54248;BME280;40161;39.768;2.722;2022-07-24T10:14:41;101392.00;;;31.54;33.42
54248;BME280;40161;39.768;2.722;2022-07-24T10:17:08;101393.31;;;31.59;32.99
54248;BME280;40161;39.768;2.722;2022-07-24T10:22:18;101388.28;;;31.68;32.85
54248;BME280;40161;39.768;2.722;2022-07-24T10:25:09;101391.81;;;31.84;32.79
54248;BME280;40161;39.768;2.722;2022-07-24T10:27:39;101394.81;;;31.95;32.85
54248;BME280;40161;39.768;2.722;2022-07-24T10:30:10;101370.16;;;31.86;33.53
54248;BME280;40161;39.768;2.722;2022-07-24T10:32:38;101389.41;;;31.97;31.03
54248;BME280;40161;39.768;2.722;2022-07-24T10:40:49;101391.13;;;32.15;32.51
54248;BME280;40161;39.768;2.722;2022-07-24T10:43:19;101396.38;;;32.22;32.74
54248;BME280;40161;39.768;2.722;2022-07-24T10:53:30;101338.88;;;32.01;31.52
54248;BME280;40161;39.768;2.722;2022-07-24T10:59:37;101391.84;;;32.36;33.20
54248;BME280;40161;39.768;2.722;2022-07-24T11:01:53;101376.31;;;32.31;34.19
54248;BME280;40161;39.768;2.722;2022-07-24T11:04:26;101386.22;;;32.42;33.34
54248;BME280;40161;39.768;2.722;2022-07-24T11:07:10;101383.19;;;32.45;32.43
54248;BME280;40161;39.768;2.722;2022-07-24T11:09:59;101387.56;;;32.46;33.24
54248;BME280;40161;39.768;2.722;2022-07-24T11:12:31;101368.38;;;32.41;32.77
54248;BME280;40161;39.768;2.722;2022-07-24T11:15:04;101385.03;;;32.54;32.67
54248;BME280;40161;39.768;2.722;2022-07-24T11:17:48;101371.59;;;32.54;33.37
54248;BME280;40161;39.768;2.722;2022-07-24T11:20:16;101377.38;;;32.66;31.45
54248;BME280;40161;39.768;2.722;2022-07-24T11:22:54;101383.63;;;32.70;32.33
54248;BME280;40161;39.768;2.722;2022-07-24T11:25:23;101375.34;;;32.72;31.68
54248;BME280;40161;39.768;2.722;2022-07-24T11:27:55;101362.44;;;32.71;31.45
54248;BME280;40161;39.768;2.722;2022-07-24T11:30:22;101350.53;;;32.67;31.17
54248;BME280;40161;39.768;2.722;2022-07-24T11:32:48;101362.75;;;32.78;32.21
54248;BME280;40161;39.768;2.722;2022-07-24T11:35:14;101366.63;;;32.81;32.11
54248;BME280;40161;39.768;2.722;2022-07-24T11:37:41;101365.63;;;32.84;31.57
54248;BME280;40161;39.768;2.722;2022-07-24T11:40:08;101373.13;;;32.87;31.96
54248;BME280;40161;39.768;2.722;2022-07-24T11:42:34;101362.53;;;32.88;31.55
54248;BME280;40161;39.768;2.722;2022-07-24T11:45:01;101363.09;;;32.92;31.90
54248;BME280;40161;39.768;2.722;2022-07-24T11:47:27;101357.19;;;32.95;32.34
54248;BME280;40161;39.768;2.722;2022-07-24T11:49:59;101328.88;;;32.69;33.13
54248;BME280;40161;39.768;2.722;2022-07-24T11:52:36;101366.00;;;32.97;32.39
54248;BME280;40161;39.768;2.722;2022-07-24T11:55:08;101327.13;;;32.83;32.64
54248;BME280;40161;39.768;2.722;2022-07-24T11:57:37;101332.56;;;32.87;32.69
54248;BME280;40161;39.768;2.722;2022-07-24T12:00:08;101364.25;;;33.11;33.17
54248;BME280;40161;39.768;2.722;2022-07-24T12:02:36;101359.09;;;33.15;33.45
54248;BME280;40161;39.768;2.722;2022-07-24T12:05:03;101347.44;;;33.13;34.54
54248;BME280;40161;39.768;2.722;2022-07-24T12:07:28;101358.63;;;33.22;33.40
54248;BME280;40161;39.768;2.722;2022-07-24T12:09:55;101326.25;;;33.08;34.27
54248;BME280;40161;39.768;2.722;2022-07-24T12:12:31;101357.34;;;33.29;33.81
54248;BME280;40161;39.768;2.722;2022-07-24T12:17:32;101337.44;;;33.29;34.13
54248;BME280;40161;39.768;2.722;2022-07-24T12:20:00;101345.75;;;33.32;33.88
54248;BME280;40161;39.768;2.722;2022-07-24T12:22:27;101344.44;;;33.33;34.18
54248;BME280;40161;39.768;2.722;2022-07-24T12:24:55;101345.50;;;33.36;35.21
54248;BME280;40161;39.768;2.722;2022-07-24T12:27:42;101342.66;;;33.36;35.96
54248;BME280;40161;39.768;2.722;2022-07-24T12:30:22;101337.47;;;33.40;35.99
54248;BME280;40161;39.768;2.722;2022-07-24T12:33:00;101335.94;;;33.39;35.92
54248;BME280;40161;39.768;2.722;2022-07-24T12:35:28;101304.13;;;33.35;35.42
54248;BME280;40161;39.768;2.722;2022-07-24T12:37:55;101327.72;;;33.52;35.51
54248;BME280;40161;39.768;2.722;2022-07-24T12:40:26;101319.69;;;33.51;36.61
54248;BME280;40161;39.768;2.722;2022-07-24T12:45:29;101310.66;;;33.58;36.29
54248;BME280;40161;39.768;2.722;2022-07-24T12:50:32;101312.47;;;33.61;35.13
54248;BME280;40161;39.768;2.722;2022-07-24T12:53:16;101286.63;;;33.59;34.22
54248;BME280;40161;39.768;2.722;2022-07-24T12:55:41;101291.03;;;33.60;34.60
54248;BME280;40161;39.768;2.722;2022-07-24T12:58:07;101292.06;;;33.68;35.79
54248;BME280;40161;39.768;2.722;2022-07-24T13:00:33;101303.19;;;33.72;35.54
54248;BME280;40161;39.768;2.722;2022-07-24T13:02:58;101291.81;;;33.66;35.52
54248;BME280;40161;39.768;2.722;2022-07-24T13:05:40;101282.25;;;33.69;36.79
54248;BME280;40161;39.768;2.722;2022-07-24T13:08:07;101285.34;;;33.77;36.41
54248;BME280;40161;39.768;2.722;2022-07-24T13:10:36;101285.59;;;33.79;35.60
54248;BME280;40161;39.768;2.722;2022-07-24T13:13:02;101287.19;;;33.80;36.26
54248;BME280;40161;39.768;2.722;2022-07-24T13:15:28;101283.81;;;33.76;35.53
54248;BME280;40161;39.768;2.722;2022-07-24T13:17:54;101282.75;;;33.79;36.64
54248;BME280;40161;39.768;2.722;2022-07-24T13:20:19;101293.88;;;33.83;36.83
54248;BME280;40161;39.768;2.722;2022-07-24T13:22:45;101276.28;;;33.78;35.54
54248;BME280;40161;39.768;2.722;2022-07-24T13:25:10;101286.66;;;33.93;35.32